This is the latest recevied weather packets stored in our database for station/object KO6SRA-13. If no packets are shown the sender has not sent any weather packets the latest 10 day(s).
| Time | Temp. | Humidity | Pressure | Rain* | Wind** | Luminosity | Snow |
|---|---|---|---|---|---|---|---|
| 1787420852 | 20° C | 75% | 1019.6 hPa | 0 mm | - | 744 W/m² | - |
| 1787420548 | 20° C | 75% | 1019.6 hPa | 0 mm | - | 740 W/m² | - |
| 1787420244 | 20° C | 77% | 1019.8 hPa | 0 mm | - | 712 W/m² | - |
| 1787419940 | 20° C | 76% | 1019.7 hPa | 0 mm | - | 689 W/m² | - |
| 1787419636 | 20.56° C | 74% | 1019.7 hPa | 0 mm | - | 672 W/m² | - |
| 1787419336 | 20.56° C | 73% | 1019.8 hPa | 0 mm | - | 655 W/m² | - |
| 1787419033 | 20.56° C | 73% | 1019.8 hPa | 0 mm | - | 592 W/m² | - |
| 1787418732 | 20.56° C | 74% | 1019.8 hPa | 0 mm | - | 563 W/m² | - |
| 1787418429 | 20.56° C | 74% | 1019.7 hPa | 0 mm | - | 567 W/m² | - |
| 1787418125 | 20° C | 77% | 1019.8 hPa | 0 mm | - | 477 W/m² | - |
| 1787417820 | 20° C | 78% | 1019.5 hPa | 0 mm | - | 416 W/m² | - |
| 1787417515 | 19.44° C | 78% | 1019.4 hPa | 0 mm | - | 443 W/m² | - |
| 1787417210 | 18.89° C | 79% | 1019.6 hPa | 0 mm | - | 508 W/m² | - |
| 1787416907 | 18.89° C | 81% | 1019.6 hPa | 0 mm | - | 511 W/m² | - |
| 1787416603 | 18.33° C | 83% | 1019.4 hPa | 0 mm | - | 466 W/m² | - |
| 1787416298 | 18.89° C | 81% | 1019.5 hPa | 0 mm | - | 424 W/m² | - |
| 1787415997 | 18.33° C | 83% | 1019.4 hPa | 0 mm | - | 402 W/m² | - |
| 1787415693 | 17.78° C | 86% | 1019.4 hPa | 0 mm | - | 381 W/m² | - |
| 1787415392 | 16.67° C | 90% | 1019.6 hPa | 0 mm | - | 354 W/m² | - |
| 1787415088 | 16.67° C | 91% | 1019.4 hPa | 0 mm | - | 335 W/m² | - |
| 1787414784 | 16.11° C | 92% | 1019.4 hPa | 0 mm | - | 306 W/m² | - |
| 1787414480 | 16.11° C | 95% | 1019.5 hPa | 0 mm | - | 233 W/m² | - |
| 1787414178 | 15.56° C | 96% | 1019.5 hPa | 0 mm | - | 322 W/m² | - |
| 1787413877 | 15° C | 96% | 1019.6 hPa | 0 mm | - | 233 W/m² | - |
| 1787413573 | 15° C | 97% | 1019.7 hPa | 0 mm | - | 181 W/m² | - |
* Rain latest hour (hover to see other rain measurements)
** Current wind speed in m/s (hover to see current wind gust speed)